sensor_id;sensor_type;location;lat;lon;timestamp;P1;durP1;ratioP1;P2;durP2;ratioP2
64208;SDS011;50527;52.414;13.226;2022-09-27T00:01:04;1.67;;;0.70;;
64208;SDS011;50527;52.414;13.226;2022-09-27T00:03:32;1.38;;;0.70;;
64208;SDS011;50527;52.414;13.226;2022-09-27T00:06:02;1.60;;;0.50;;
64208;SDS011;50527;52.414;13.226;2022-09-27T00:08:30;3.67;;;0.50;;
64208;SDS011;50527;52.414;13.226;2022-09-27T00:10:57;0.65;;;0.30;;
64208;SDS011;50527;52.414;13.226;2022-09-27T00:13:28;1.58;;;0.50;;
64208;SDS011;50527;52.414;13.226;2022-09-27T00:15:57;0.65;;;0.28;;
64208;SDS011;50527;52.414;13.226;2022-09-27T00:18:24;0.35;;;0.28;;
64208;SDS011;50527;52.414;13.226;2022-09-27T00:20:49;2.35;;;0.30;;
64208;SDS011;50527;52.414;13.226;2022-09-27T00:23:15;3.92;;;0.50;;
64208;SDS011;50527;52.414;13.226;2022-09-27T00:25:40;1.50;;;0.38;;
64208;SDS011;50527;52.414;13.226;2022-09-27T00:28:06;0.73;;;0.38;;
64208;SDS011;50527;52.414;13.226;2022-09-27T00:30:31;0.60;;;0.32;;
64208;SDS011;50527;52.414;13.226;2022-09-27T00:32:56;0.80;;;0.20;;
64208;SDS011;50527;52.414;13.226;2022-09-27T00:35:22;1.42;;;0.20;;
64208;SDS011;50527;52.414;13.226;2022-09-27T00:37:47;2.15;;;0.22;;
64208;SDS011;50527;52.414;13.226;2022-09-27T00:40:13;0.77;;;0.30;;
64208;SDS011;50527;52.414;13.226;2022-09-27T00:42:39;0.70;;;0.28;;
64208;SDS011;50527;52.414;13.226;2022-09-27T00:45:12;2.20;;;0.40;;
64208;SDS011;50527;52.414;13.226;2022-09-27T00:47:42;1.95;;;0.30;;
64208;SDS011;50527;52.414;13.226;2022-09-27T00:50:25;2.22;;;0.30;;
64208;SDS011;50527;52.414;13.226;2022-09-27T00:53:03;1.83;;;0.40;;
64208;SDS011;50527;52.414;13.226;2022-09-27T00:55:40;0.40;;;0.30;;
64208;SDS011;50527;52.414;13.226;2022-09-27T00:58:09;3.55;;;0.40;;
64208;SDS011;50527;52.414;13.226;2022-09-27T01:00:38;0.65;;;0.30;;
64208;SDS011;50527;52.414;13.226;2022-09-27T01:03:09;3.20;;;0.20;;
64208;SDS011;50527;52.414;13.226;2022-09-27T01:05:39;2.00;;;0.40;;
64208;SDS011;50527;52.414;13.226;2022-09-27T01:08:06;0.50;;;0.30;;
64208;SDS011;50527;52.414;13.226;2022-09-27T01:10:34;0.40;;;0.25;;
64208;SDS011;50527;52.414;13.226;2022-09-27T01:15:49;2.35;;;0.32;;
64208;SDS011;50527;52.414;13.226;2022-09-27T01:18:22;0.47;;;0.20;;
64208;SDS011;50527;52.414;13.226;2022-09-27T01:21:04;0.60;;;0.30;;
64208;SDS011;50527;52.414;13.226;2022-09-27T01:24:01;1.27;;;0.20;;
64208;SDS011;50527;52.414;13.226;2022-09-27T01:29:59;0.52;;;0.30;;
64208;SDS011;50527;52.414;13.226;2022-09-27T01:32:49;6.40;;;0.30;;
64208;SDS011;50527;52.414;13.226;2022-09-27T01:38:24;2.53;;;0.30;;
64208;SDS011;50527;52.414;13.226;2022-09-27T01:46:06;0.82;;;0.30;;
64208;SDS011;50527;52.414;13.226;2022-09-27T01:48:44;0.52;;;0.15;;
64208;SDS011;50527;52.414;13.226;2022-09-27T01:51:17;2.80;;;0.30;;
64208;SDS011;50527;52.414;13.226;2022-09-27T01:53:46;0.60;;;0.20;;
64208;SDS011;50527;52.414;13.226;2022-09-27T01:56:17;3.40;;;0.30;;
64208;SDS011;50527;52.414;13.226;2022-09-27T01:58:56;3.83;;;0.30;;
64208;SDS011;50527;52.414;13.226;2022-09-27T02:01:28;2.63;;;0.30;;
64208;SDS011;50527;52.414;13.226;2022-09-27T02:03:56;0.88;;;0.30;;
64208;SDS011;50527;52.414;13.226;2022-09-27T02:06:27;0.90;;;0.20;;
64208;SDS011;50527;52.414;13.226;2022-09-27T02:09:03;1.27;;;0.30;;
64208;SDS011;50527;52.414;13.226;2022-09-27T02:11:36;0.38;;;0.10;;
64208;SDS011;50527;52.414;13.226;2022-09-27T02:14:14;3.03;;;0.20;;
64208;SDS011;50527;52.414;13.226;2022-09-27T02:16:53;0.77;;;0.20;;
64208;SDS011;50527;52.414;13.226;2022-09-27T02:19:37;0.82;;;0.30;;
64208;SDS011;50527;52.414;13.226;2022-09-27T02:22:33;0.35;;;0.20;;
64208;SDS011;50527;52.414;13.226;2022-09-27T02:30:36;2.58;;;0.30;;
64208;SDS011;50527;52.414;13.226;2022-09-27T02:33:01;0.32;;;0.10;;
64208;SDS011;50527;52.414;13.226;2022-09-27T02:35:28;1.80;;;0.30;;
64208;SDS011;50527;52.414;13.226;2022-09-27T02:37:56;0.40;;;0.20;;
64208;SDS011;50527;52.414;13.226;2022-09-27T02:40:22;1.65;;;0.10;;
64208;SDS011;50527;52.414;13.226;2022-09-27T02:42:49;1.50;;;0.40;;
64208;SDS011;50527;52.414;13.226;2022-09-27T02:45:15;1.15;;;0.30;;
64208;SDS011;50527;52.414;13.226;2022-09-27T02:53:34;0.75;;;0.13;;
64208;SDS011;50527;52.414;13.226;2022-09-27T02:56:14;2.10;;;0.40;;
64208;SDS011;50527;52.414;13.226;2022-09-27T02:58:48;0.55;;;0.13;;
64208;SDS011;50527;52.414;13.226;2022-09-27T03:07:02;1.25;;;0.30;;
64208;SDS011;50527;52.414;13.226;2022-09-27T03:09:29;1.13;;;0.20;;
64208;SDS011;50527;52.414;13.226;2022-09-27T03:12:04;1.60;;;0.20;;
64208;SDS011;50527;52.414;13.226;2022-09-27T03:14:30;0.70;;;0.20;;
64208;SDS011;50527;52.414;13.226;2022-09-27T03:16:55;1.15;;;0.20;;
64208;SDS011;50527;52.414;13.226;2022-09-27T03:19:22;0.85;;;0.30;;
64208;SDS011;50527;52.414;13.226;2022-09-27T03:21:48;0.70;;;0.40;;
64208;SDS011;50527;52.414;13.226;2022-09-27T03:24:14;0.43;;;0.30;;
64208;SDS011;50527;52.414;13.226;2022-09-27T03:26:39;0.32;;;0.20;;
64208;SDS011;50527;52.414;13.226;2022-09-27T03:29:05;1.13;;;0.32;;
64208;SDS011;50527;52.414;13.226;2022-09-27T03:31:30;1.83;;;0.30;;
64208;SDS011;50527;52.414;13.226;2022-09-27T03:33:55;1.25;;;0.40;;
64208;SDS011;50527;52.414;13.226;2022-09-27T03:36:21;1.10;;;0.30;;
64208;SDS011;50527;52.414;13.226;2022-09-27T03:38:46;2.30;;;0.50;;
64208;SDS011;50527;52.414;13.226;2022-09-27T03:41:12;2.95;;;0.60;;
64208;SDS011;50527;52.414;13.226;2022-09-27T03:43:37;0.65;;;0.30;;
64208;SDS011;50527;52.414;13.226;2022-09-27T03:46:03;0.93;;;0.40;;
64208;SDS011;50527;52.414;13.226;2022-09-27T03:48:28;0.45;;;0.30;;
64208;SDS011;50527;52.414;13.226;2022-09-27T03:50:55;3.13;;;0.43;;
64208;SDS011;50527;52.414;13.226;2022-09-27T03:53:20;1.23;;;0.30;;
64208;SDS011;50527;52.414;13.226;2022-09-27T03:55:46;0.47;;;0.30;;
64208;SDS011;50527;52.414;13.226;2022-09-27T03:58:11;1.17;;;0.40;;
64208;SDS011;50527;52.414;13.226;2022-09-27T04:00:37;0.28;;;0.15;;
64208;SDS011;50527;52.414;13.226;2022-09-27T04:03:05;1.63;;;0.30;;
64208;SDS011;50527;52.414;13.226;2022-09-27T04:05:30;1.15;;;0.30;;
64208;SDS011;50527;52.414;13.226;2022-09-27T04:07:56;2.17;;;0.45;;
64208;SDS011;50527;52.414;13.226;2022-09-27T04:10:22;1.88;;;0.55;;
64208;SDS011;50527;52.414;13.226;2022-09-27T04:12:47;1.95;;;0.40;;
64208;SDS011;50527;52.414;13.226;2022-09-27T04:15:13;0.82;;;0.30;;
64208;SDS011;50527;52.414;13.226;2022-09-27T04:17:40;2.60;;;0.30;;
64208;SDS011;50527;52.414;13.226;2022-09-27T04:20:06;0.82;;;0.30;;
64208;SDS011;50527;52.414;13.226;2022-09-27T04:22:33;1.08;;;0.47;;
64208;SDS011;50527;52.414;13.226;2022-09-27T04:24:58;2.47;;;0.45;;
64208;SDS011;50527;52.414;13.226;2022-09-27T04:27:24;2.42;;;0.52;;
64208;SDS011;50527;52.414;13.226;2022-09-27T04:29:49;4.88;;;0.40;;
64208;SDS011;50527;52.414;13.226;2022-09-27T04:32:14;0.75;;;0.30;;
64208;SDS011;50527;52.414;13.226;2022-09-27T04:34:40;1.20;;;0.30;;
64208;SDS011;50527;52.414;13.226;2022-09-27T04:37:24;3.90;;;0.47;;
64208;SDS011;50527;52.414;13.226;2022-09-27T04:39:51;1.45;;;0.50;;
64208;SDS011;50527;52.414;13.226;2022-09-27T04:42:16;0.60;;;0.38;;
64208;SDS011;50527;52.414;13.226;2022-09-27T04:44:42;1.23;;;0.40;;
64208;SDS011;50527;52.414;13.226;2022-09-27T04:47:08;1.55;;;0.50;;
64208;SDS011;50527;52.414;13.226;2022-09-27T04:49:34;1.40;;;0.60;;
64208;SDS011;50527;52.414;13.226;2022-09-27T04:52:00;1.13;;;0.50;;
64208;SDS011;50527;52.414;13.226;2022-09-27T04:54:26;0.60;;;0.40;;
64208;SDS011;50527;52.414;13.226;2022-09-27T04:56:51;0.93;;;0.32;;
64208;SDS011;50527;52.414;13.226;2022-09-27T04:59:17;0.90;;;0.50;;
64208;SDS011;50527;52.414;13.226;2022-09-27T05:01:42;1.33;;;0.50;;
64208;SDS011;50527;52.414;13.226;2022-09-27T05:04:09;0.30;;;0.28;;
64208;SDS011;50527;52.414;13.226;2022-09-27T05:06:34;2.88;;;0.55;;
64208;SDS011;50527;52.414;13.226;2022-09-27T05:09:00;1.05;;;0.50;;
64208;SDS011;50527;52.414;13.226;2022-09-27T05:11:25;2.63;;;0.68;;
64208;SDS011;50527;52.414;13.226;2022-09-27T05:13:51;0.88;;;0.40;;
64208;SDS011;50527;52.414;13.226;2022-09-27T05:16:16;3.72;;;0.55;;
64208;SDS011;50527;52.414;13.226;2022-09-27T05:18:43;0.80;;;0.50;;
64208;SDS011;50527;52.414;13.226;2022-09-27T05:21:09;1.40;;;0.50;;
64208;SDS011;50527;52.414;13.226;2022-09-27T05:23:35;2.00;;;0.60;;
64208;SDS011;50527;52.414;13.226;2022-09-27T05:26:04;1.63;;;0.82;;
64208;SDS011;50527;52.414;13.226;2022-09-27T05:28:30;3.05;;;0.90;;
64208;SDS011;50527;52.414;13.226;2022-09-27T05:30:56;1.48;;;0.52;;
64208;SDS011;50527;52.414;13.226;2022-09-27T05:33:22;1.55;;;0.60;;
64208;SDS011;50527;52.414;13.226;2022-09-27T05:35:51;3.85;;;0.80;;
64208;SDS011;50527;52.414;13.226;2022-09-27T05:38:18;5.07;;;0.80;;
64208;SDS011;50527;52.414;13.226;2022-09-27T05:40:43;3.80;;;0.52;;
64208;SDS011;50527;52.414;13.226;2022-09-27T05:43:11;1.48;;;0.50;;
64208;SDS011;50527;52.414;13.226;2022-09-27T05:45:37;1.30;;;0.50;;
64208;SDS011;50527;52.414;13.226;2022-09-27T05:48:02;0.80;;;0.60;;
64208;SDS011;50527;52.414;13.226;2022-09-27T05:50:29;2.67;;;0.70;;
64208;SDS011;50527;52.414;13.226;2022-09-27T05:52:55;4.00;;;0.88;;
64208;SDS011;50527;52.414;13.226;2022-09-27T05:55:20;1.10;;;0.47;;
64208;SDS011;50527;52.414;13.226;2022-09-27T05:57:59;1.55;;;0.50;;
64208;SDS011;50527;52.414;13.226;2022-09-27T06:00:26;1.73;;;0.40;;
64208;SDS011;50527;52.414;13.226;2022-09-27T06:02:53;1.75;;;0.50;;
64208;SDS011;50527;52.414;13.226;2022-09-27T06:05:20;1.17;;;0.63;;
64208;SDS011;50527;52.414;13.226;2022-09-27T06:07:45;1.40;;;0.52;;
64208;SDS011;50527;52.414;13.226;2022-09-27T06:10:13;1.48;;;0.68;;
64208;SDS011;50527;52.414;13.226;2022-09-27T06:12:39;2.35;;;0.60;;
64208;SDS011;50527;52.414;13.226;2022-09-27T06:15:05;3.90;;;0.70;;
64208;SDS011;50527;52.414;13.226;2022-09-27T06:17:35;0.98;;;0.43;;
64208;SDS011;50527;52.414;13.226;2022-09-27T06:20:00;1.17;;;0.50;;
64208;SDS011;50527;52.414;13.226;2022-09-27T06:22:26;2.90;;;0.63;;
64208;SDS011;50527;52.414;13.226;2022-09-27T06:24:52;2.85;;;0.50;;
64208;SDS011;50527;52.414;13.226;2022-09-27T06:27:17;0.70;;;0.40;;
64208;SDS011;50527;52.414;13.226;2022-09-27T06:29:43;1.00;;;0.43;;
64208;SDS011;50527;52.414;13.226;2022-09-27T06:32:08;2.60;;;0.57;;
64208;SDS011;50527;52.414;13.226;2022-09-27T06:34:35;2.35;;;0.50;;
64208;SDS011;50527;52.414;13.226;2022-09-27T06:37:00;4.20;;;0.70;;
64208;SDS011;50527;52.414;13.226;2022-09-27T06:39:26;0.70;;;0.50;;
64208;SDS011;50527;52.414;13.226;2022-09-27T06:41:53;1.17;;;0.45;;
64208;SDS011;50527;52.414;13.226;2022-09-27T06:44:21;1.92;;;0.32;;
64208;SDS011;50527;52.414;13.226;2022-09-27T06:46:48;1.02;;;0.40;;
64208;SDS011;50527;52.414;13.226;2022-09-27T06:49:14;3.10;;;0.70;;
64208;SDS011;50527;52.414;13.226;2022-09-27T06:51:40;1.10;;;0.45;;
64208;SDS011;50527;52.414;13.226;2022-09-27T06:54:06;2.03;;;0.50;;
64208;SDS011;50527;52.414;13.226;2022-09-27T06:56:31;0.93;;;0.40;;
64208;SDS011;50527;52.414;13.226;2022-09-27T06:58:57;2.33;;;0.52;;
64208;SDS011;50527;52.414;13.226;2022-09-27T07:01:41;1.05;;;0.52;;
64208;SDS011;50527;52.414;13.226;2022-09-27T07:04:07;1.35;;;0.45;;
64208;SDS011;50527;52.414;13.226;2022-09-27T07:06:35;1.27;;;0.55;;
64208;SDS011;50527;52.414;13.226;2022-09-27T07:09:01;1.38;;;0.40;;
64208;SDS011;50527;52.414;13.226;2022-09-27T07:11:27;1.02;;;0.40;;
64208;SDS011;50527;52.414;13.226;2022-09-27T07:13:53;0.80;;;0.40;;
64208;SDS011;50527;52.414;13.226;2022-09-27T07:16:20;3.42;;;0.60;;
64208;SDS011;50527;52.414;13.226;2022-09-27T07:18:46;1.17;;;0.60;;
64208;SDS011;50527;52.414;13.226;2022-09-27T07:21:13;2.92;;;1.60;;
64208;SDS011;50527;52.414;13.226;2022-09-27T07:23:40;1.08;;;0.60;;
64208;SDS011;50527;52.414;13.226;2022-09-27T07:26:06;1.20;;;0.50;;
64208;SDS011;50527;52.414;13.226;2022-09-27T07:28:34;4.97;;;0.95;;
64208;SDS011;50527;52.414;13.226;2022-09-27T07:31:00;2.92;;;0.60;;
64208;SDS011;50527;52.414;13.226;2022-09-27T07:33:27;0.98;;;0.50;;
64208;SDS011;50527;52.414;13.226;2022-09-27T07:35:52;1.30;;;0.30;;
64208;SDS011;50527;52.414;13.226;2022-09-27T07:38:18;1.48;;;0.40;;
64208;SDS011;50527;52.414;13.226;2022-09-27T07:40:44;1.33;;;0.50;;
64208;SDS011;50527;52.414;13.226;2022-09-27T07:43:10;1.45;;;0.50;;
64208;SDS011;50527;52.414;13.226;2022-09-27T07:45:36;0.88;;;0.50;;
64208;SDS011;50527;52.414;13.226;2022-09-27T07:48:06;2.65;;;0.50;;
64208;SDS011;50527;52.414;13.226;2022-09-27T07:50:34;0.80;;;0.40;;
64208;SDS011;50527;52.414;13.226;2022-09-27T07:53:00;1.15;;;0.35;;
64208;SDS011;50527;52.414;13.226;2022-09-27T07:55:25;1.02;;;0.40;;
64208;SDS011;50527;52.414;13.226;2022-09-27T07:57:51;2.90;;;0.40;;
64208;SDS011;50527;52.414;13.226;2022-09-27T08:00:17;1.83;;;0.60;;
64208;SDS011;50527;52.414;13.226;2022-09-27T08:02:46;1.98;;;0.50;;
64208;SDS011;50527;52.414;13.226;2022-09-27T08:05:12;3.67;;;0.40;;
64208;SDS011;50527;52.414;13.226;2022-09-27T08:07:38;0.80;;;0.50;;
64208;SDS011;50527;52.414;13.226;2022-09-27T08:10:05;2.20;;;0.50;;
64208;SDS011;50527;52.414;13.226;2022-09-27T08:12:32;3.97;;;0.50;;
64208;SDS011;50527;52.414;13.226;2022-09-27T08:14:58;1.10;;;0.50;;
64208;SDS011;50527;52.414;13.226;2022-09-27T08:17:26;1.45;;;0.50;;
64208;SDS011;50527;52.414;13.226;2022-09-27T08:19:52;2.38;;;0.70;;
64208;SDS011;50527;52.414;13.226;2022-09-27T08:22:18;1.90;;;0.50;;
64208;SDS011;50527;52.414;13.226;2022-09-27T08:24:45;3.20;;;0.68;;
64208;SDS011;50527;52.414;13.226;2022-09-27T08:27:11;2.03;;;0.50;;
64208;SDS011;50527;52.414;13.226;2022-09-27T08:29:37;2.30;;;0.43;;
64208;SDS011;50527;52.414;13.226;2022-09-27T08:32:05;2.42;;;0.40;;
64208;SDS011;50527;52.414;13.226;2022-09-27T08:34:35;1.40;;;0.50;;
64208;SDS011;50527;52.414;13.226;2022-09-27T08:37:00;0.75;;;0.35;;
64208;SDS011;50527;52.414;13.226;2022-09-27T08:39:26;1.95;;;0.50;;
64208;SDS011;50527;52.414;13.226;2022-09-27T08:41:54;1.42;;;0.40;;
64208;SDS011;50527;52.414;13.226;2022-09-27T08:47:23;1.60;;;0.50;;
64208;SDS011;50527;52.414;13.226;2022-09-27T08:50:12;3.75;;;0.50;;
64208;SDS011;50527;52.414;13.226;2022-09-27T08:55:48;1.98;;;0.50;;
64208;SDS011;50527;52.414;13.226;2022-09-27T08:58:29;3.75;;;0.60;;
64208;SDS011;50527;52.414;13.226;2022-09-27T09:01:00;1.25;;;0.50;;
64208;SDS011;50527;52.414;13.226;2022-09-27T09:03:28;3.97;;;0.90;;
64208;SDS011;50527;52.414;13.226;2022-09-27T09:06:16;1.02;;;0.40;;
64208;SDS011;50527;52.414;13.226;2022-09-27T09:09:02;2.38;;;0.43;;
64208;SDS011;50527;52.414;13.226;2022-09-27T09:23:14;1.35;;;0.50;;
64208;SDS011;50527;52.414;13.226;2022-09-27T09:31:31;1.17;;;0.40;;
64208;SDS011;50527;52.414;13.226;2022-09-27T09:34:29;1.17;;;0.57;;
64208;SDS011;50527;52.414;13.226;2022-09-27T09:37:09;1.38;;;0.40;;
64208;SDS011;50527;52.414;13.226;2022-09-27T09:39:44;0.75;;;0.40;;
64208;SDS011;50527;52.414;13.226;2022-09-27T09:42:19;2.45;;;0.50;;
64208;SDS011;50527;52.414;13.226;2022-09-27T09:45:01;0.63;;;0.40;;
64208;SDS011;50527;52.414;13.226;2022-09-27T09:50:19;1.55;;;0.50;;
64208;SDS011;50527;52.414;13.226;2022-09-27T09:52:56;2.95;;;0.40;;
64208;SDS011;50527;52.414;13.226;2022-09-27T09:55:29;0.68;;;0.40;;
64208;SDS011;50527;52.414;13.226;2022-09-27T09:58:04;0.70;;;0.40;;
64208;SDS011;50527;52.414;13.226;2022-09-27T10:00:58;1.25;;;0.50;;
64208;SDS011;50527;52.414;13.226;2022-09-27T10:03:35;0.98;;;0.50;;
64208;SDS011;50527;52.414;13.226;2022-09-27T10:06:01;1.20;;;0.40;;
64208;SDS011;50527;52.414;13.226;2022-09-27T10:08:26;1.95;;;0.43;;
64208;SDS011;50527;52.414;13.226;2022-09-27T10:10:52;0.57;;;0.40;;
64208;SDS011;50527;52.414;13.226;2022-09-27T10:13:18;0.43;;;0.30;;
64208;SDS011;50527;52.414;13.226;2022-09-27T10:15:49;0.90;;;0.43;;
64208;SDS011;50527;52.414;13.226;2022-09-27T10:18:20;1.42;;;0.52;;
64208;SDS011;50527;52.414;13.226;2022-09-27T10:20:48;1.60;;;0.40;;
64208;SDS011;50527;52.414;13.226;2022-09-27T10:23:19;1.67;;;0.40;;
64208;SDS011;50527;52.414;13.226;2022-09-27T10:25:47;0.73;;;0.40;;
64208;SDS011;50527;52.414;13.226;2022-09-27T10:28:34;1.08;;;0.40;;
64208;SDS011;50527;52.414;13.226;2022-09-27T10:31:05;0.60;;;0.40;;
64208;SDS011;50527;52.414;13.226;2022-09-27T10:33:32;1.35;;;0.55;;
64208;SDS011;50527;52.414;13.226;2022-09-27T10:36:00;1.98;;;0.57;;
64208;SDS011;50527;52.414;13.226;2022-09-27T10:40:57;1.77;;;0.50;;
64208;SDS011;50527;52.414;13.226;2022-09-27T10:43:40;1.92;;;0.60;;
64208;SDS011;50527;52.414;13.226;2022-09-27T10:48:40;0.68;;;0.40;;
64208;SDS011;50527;52.414;13.226;2022-09-27T10:51:16;0.50;;;0.40;;
64208;SDS011;50527;52.414;13.226;2022-09-27T10:53:50;1.50;;;0.60;;
64208;SDS011;50527;52.414;13.226;2022-09-27T10:56:20;1.73;;;0.50;;
64208;SDS011;50527;52.414;13.226;2022-09-27T10:58:48;0.90;;;0.40;;
64208;SDS011;50527;52.414;13.226;2022-09-27T11:01:15;0.90;;;0.50;;
64208;SDS011;50527;52.414;13.226;2022-09-27T11:03:48;2.42;;;0.57;;
64208;SDS011;50527;52.414;13.226;2022-09-27T11:08:51;3.85;;;0.70;;
64208;SDS011;50527;52.414;13.226;2022-09-27T11:11:19;0.70;;;0.50;;
64208;SDS011;50527;52.414;13.226;2022-09-27T11:13:58;1.40;;;0.60;;
64208;SDS011;50527;52.414;13.226;2022-09-27T11:17:05;3.25;;;0.60;;
64208;SDS011;50527;52.414;13.226;2022-09-27T11:19:59;4.05;;;0.70;;
64208;SDS011;50527;52.414;13.226;2022-09-27T11:22:54;0.82;;;0.60;;
64208;SDS011;50527;52.414;13.226;2022-09-27T11:25:45;1.13;;;0.30;;
64208;SDS011;50527;52.414;13.226;2022-09-27T11:28:44;1.40;;;0.30;;
64208;SDS011;50527;52.414;13.226;2022-09-27T11:31:34;1.05;;;0.20;;
64208;SDS011;50527;52.414;13.226;2022-09-27T11:39:53;0.88;;;0.20;;
64208;SDS011;50527;52.414;13.226;2022-09-27T11:45:24;0.47;;;0.10;;
64208;SDS011;50527;52.414;13.226;2022-09-27T11:48:19;1.17;;;0.10;;
64208;SDS011;50527;52.414;13.226;2022-09-27T11:51:06;0.95;;;0.17;;
64208;SDS011;50527;52.414;13.226;2022-09-27T11:53:40;2.55;;;0.10;;
64208;SDS011;50527;52.414;13.226;2022-09-27T11:56:36;0.90;;;0.20;;
64208;SDS011;50527;52.414;13.226;2022-09-27T11:59:21;0.95;;;0.20;;
64208;SDS011;50527;52.414;13.226;2022-09-27T12:05:15;1.15;;;0.30;;
64208;SDS011;50527;52.414;13.226;2022-09-27T12:10:33;0.35;;;0.30;;
64208;SDS011;50527;52.414;13.226;2022-09-27T12:13:01;0.95;;;0.40;;
64208;SDS011;50527;52.414;13.226;2022-09-27T12:15:28;1.23;;;0.40;;
64208;SDS011;50527;52.414;13.226;2022-09-27T12:20:43;0.32;;;0.22;;
64208;SDS011;50527;52.414;13.226;2022-09-27T12:23:20;2.22;;;0.30;;
64208;SDS011;50527;52.414;13.226;2022-09-27T12:26:05;1.30;;;0.30;;
64208;SDS011;50527;52.414;13.226;2022-09-27T12:28:52;0.60;;;0.30;;
64208;SDS011;50527;52.414;13.226;2022-09-27T12:31:40;2.42;;;0.30;;
64208;SDS011;50527;52.414;13.226;2022-09-27T12:37:18;0.30;;;0.30;;
64208;SDS011;50527;52.414;13.226;2022-09-27T12:40:00;1.35;;;0.32;;
64208;SDS011;50527;52.414;13.226;2022-09-27T12:45:09;1.42;;;0.40;;
64208;SDS011;50527;52.414;13.226;2022-09-27T12:47:54;2.05;;;0.28;;
64208;SDS011;50527;52.414;13.226;2022-09-27T12:50:34;1.60;;;0.40;;
64208;SDS011;50527;52.414;13.226;2022-09-27T12:58:20;0.38;;;0.20;;
64208;SDS011;50527;52.414;13.226;2022-09-27T13:00:58;2.28;;;0.35;;
64208;SDS011;50527;52.414;13.226;2022-09-27T13:03:31;0.95;;;0.30;;
64208;SDS011;50527;52.414;13.226;2022-09-27T13:06:30;0.70;;;0.30;;
64208;SDS011;50527;52.414;13.226;2022-09-27T13:09:05;1.35;;;0.40;;
64208;SDS011;50527;52.414;13.226;2022-09-27T13:11:59;0.70;;;0.30;;
64208;SDS011;50527;52.414;13.226;2022-09-27T13:14:37;0.38;;;0.30;;
64208;SDS011;50527;52.414;13.226;2022-09-27T13:17:30;0.40;;;0.30;;
64208;SDS011;50527;52.414;13.226;2022-09-27T13:23:00;0.85;;;0.28;;
64208;SDS011;50527;52.414;13.226;2022-09-27T13:29:10;0.40;;;0.30;;
64208;SDS011;50527;52.414;13.226;2022-09-27T13:31:13;3.50;;;0.40;;
64208;SDS011;50527;52.414;13.226;2022-09-27T13:33:52;1.55;;;0.52;;
64208;SDS011;50527;52.414;13.226;2022-09-27T13:36:23;0.70;;;0.20;;
64208;SDS011;50527;52.414;13.226;2022-09-27T13:47:03;1.05;;;0.30;;
64208;SDS011;50527;52.414;13.226;2022-09-27T13:49:48;0.20;;;0.20;;
64208;SDS011;50527;52.414;13.226;2022-09-27T13:52:21;0.40;;;0.10;;
64208;SDS011;50527;52.414;13.226;2022-09-27T13:54:58;0.90;;;0.20;;
64208;SDS011;50527;52.414;13.226;2022-09-27T14:00:23;1.83;;;0.30;;
64208;SDS011;50527;52.414;13.226;2022-09-27T14:03:05;1.17;;;0.20;;
64208;SDS011;50527;52.414;13.226;2022-09-27T14:05:40;0.20;;;0.13;;
64208;SDS011;50527;52.414;13.226;2022-09-27T14:08:47;2.47;;;0.30;;
64208;SDS011;50527;52.414;13.226;2022-09-27T14:11:18;0.55;;;0.22;;
64208;SDS011;50527;52.414;13.226;2022-09-27T14:14:02;2.03;;;0.30;;
64208;SDS011;50527;52.414;13.226;2022-09-27T14:16:30;2.65;;;0.40;;
64208;SDS011;50527;52.414;13.226;2022-09-27T14:18:59;1.40;;;0.40;;
64208;SDS011;50527;52.414;13.226;2022-09-27T14:21:33;0.40;;;0.30;;
64208;SDS011;50527;52.414;13.226;2022-09-27T14:29:38;0.88;;;0.40;;
64208;SDS011;50527;52.414;13.226;2022-09-27T14:32:10;0.50;;;0.40;;
64208;SDS011;50527;52.414;13.226;2022-09-27T14:35:01;3.65;;;0.60;;
64208;SDS011;50527;52.414;13.226;2022-09-27T14:38:00;1.33;;;0.60;;
64208;SDS011;50527;52.414;13.226;2022-09-27T14:40:27;1.00;;;0.40;;
64208;SDS011;50527;52.414;13.226;2022-09-27T14:42:53;0.98;;;0.50;;
64208;SDS011;50527;52.414;13.226;2022-09-27T14:45:26;1.73;;;0.50;;
64208;SDS011;50527;52.414;13.226;2022-09-27T14:48:00;0.90;;;0.40;;
64208;SDS011;50527;52.414;13.226;2022-09-27T14:50:30;1.23;;;0.40;;
64208;SDS011;50527;52.414;13.226;2022-09-27T14:52:56;2.22;;;0.50;;
64208;SDS011;50527;52.414;13.226;2022-09-27T14:55:28;1.00;;;0.50;;
64208;SDS011;50527;52.414;13.226;2022-09-27T14:57:55;0.60;;;0.50;;
64208;SDS011;50527;52.414;13.226;2022-09-27T15:00:23;1.15;;;0.50;;
64208;SDS011;50527;52.414;13.226;2022-09-27T15:02:52;1.77;;;0.50;;
64208;SDS011;50527;52.414;13.226;2022-09-27T15:05:21;1.77;;;0.60;;
64208;SDS011;50527;52.414;13.226;2022-09-27T15:07:49;1.02;;;0.65;;
64208;SDS011;50527;52.414;13.226;2022-09-27T15:10:19;1.45;;;0.70;;
64208;SDS011;50527;52.414;13.226;2022-09-27T15:12:50;0.95;;;0.40;;
64208;SDS011;50527;52.414;13.226;2022-09-27T15:15:20;0.82;;;0.50;;
64208;SDS011;50527;52.414;13.226;2022-09-27T15:17:47;1.35;;;0.57;;
64208;SDS011;50527;52.414;13.226;2022-09-27T15:20:18;2.58;;;0.88;;
64208;SDS011;50527;52.414;13.226;2022-09-27T15:22:45;2.53;;;0.70;;
64208;SDS011;50527;52.414;13.226;2022-09-27T15:25:28;0.90;;;0.60;;
64208;SDS011;50527;52.414;13.226;2022-09-27T15:28:04;2.83;;;0.70;;
64208;SDS011;50527;52.414;13.226;2022-09-27T15:30:39;2.92;;;0.88;;
64208;SDS011;50527;52.414;13.226;2022-09-27T15:33:17;2.10;;;0.70;;
64208;SDS011;50527;52.414;13.226;2022-09-27T15:35:49;2.60;;;0.90;;
64208;SDS011;50527;52.414;13.226;2022-09-27T15:38:21;10.20;;;2.63;;
64208;SDS011;50527;52.414;13.226;2022-09-27T15:43:29;6.45;;;1.00;;
64208;SDS011;50527;52.414;13.226;2022-09-27T15:46:00;4.80;;;2.38;;
64208;SDS011;50527;52.414;13.226;2022-09-27T15:51:51;3.65;;;1.80;;
64208;SDS011;50527;52.414;13.226;2022-09-27T15:54:24;2.78;;;1.05;;
64208;SDS011;50527;52.414;13.226;2022-09-27T15:56:54;2.15;;;0.77;;
64208;SDS011;50527;52.414;13.226;2022-09-27T15:59:24;2.65;;;0.70;;
64208;SDS011;50527;52.414;13.226;2022-09-27T16:01:53;4.60;;;1.33;;
64208;SDS011;50527;52.414;13.226;2022-09-27T16:06:50;2.22;;;0.70;;
64208;SDS011;50527;52.414;13.226;2022-09-27T16:09:17;3.65;;;1.02;;
64208;SDS011;50527;52.414;13.226;2022-09-27T16:11:44;1.85;;;0.95;;
64208;SDS011;50527;52.414;13.226;2022-09-27T16:14:11;1.00;;;0.50;;
64208;SDS011;50527;52.414;13.226;2022-09-27T16:16:40;2.15;;;0.50;;
64208;SDS011;50527;52.414;13.226;2022-09-27T16:19:10;1.40;;;0.60;;
64208;SDS011;50527;52.414;13.226;2022-09-27T16:21:36;1.80;;;0.70;;
64208;SDS011;50527;52.414;13.226;2022-09-27T16:24:02;1.58;;;0.63;;
64208;SDS011;50527;52.414;13.226;2022-09-27T16:26:28;2.25;;;0.70;;
64208;SDS011;50527;52.414;13.226;2022-09-27T16:28:54;1.42;;;0.88;;
64208;SDS011;50527;52.414;13.226;2022-09-27T16:31:19;1.80;;;0.70;;
64208;SDS011;50527;52.414;13.226;2022-09-27T16:33:46;3.20;;;0.38;;
64208;SDS011;50527;52.414;13.226;2022-09-27T16:36:13;0.63;;;0.50;;
64208;SDS011;50527;52.414;13.226;2022-09-27T16:38:43;1.00;;;0.60;;
64208;SDS011;50527;52.414;13.226;2022-09-27T16:41:11;1.70;;;0.70;;
64208;SDS011;50527;52.414;13.226;2022-09-27T16:43:37;1.48;;;0.75;;
64208;SDS011;50527;52.414;13.226;2022-09-27T16:46:03;1.30;;;0.60;;
64208;SDS011;50527;52.414;13.226;2022-09-27T16:48:32;2.58;;;1.02;;
64208;SDS011;50527;52.414;13.226;2022-09-27T16:51:01;2.20;;;1.05;;
64208;SDS011;50527;52.414;13.226;2022-09-27T16:53:50;3.60;;;0.85;;
64208;SDS011;50527;52.414;13.226;2022-09-27T16:56:15;1.33;;;0.80;;
64208;SDS011;50527;52.414;13.226;2022-09-27T16:58:41;1.98;;;0.85;;
64208;SDS011;50527;52.414;13.226;2022-09-27T17:01:07;2.78;;;1.60;;